Current Weather

Arlington Muni

Arlington, Washington (KAWO)

Report from: Wednesday, April 24, 2024 12:40 PM PDT
Current time: Wednesday, April 24, 2024 1:01 PM PDT

Nearby weather – Weather history – Daily summaries
Weather forecast

Present weatherLight rain, mist
Temperature9.0°C (48.2°F)
Wind chill7.3°C (45.1°F)
Dew point8.0°C (46.4°F)
Winds 6 kts (3.1 m/s, 6.9 mph) South (170°)
Visibility5 mi. (8 km)
Clouds Few clouds 900 ft. (274 m)
Ceiling: Broken clouds 1,200 ft. (366 m)
Overcast 2,500 ft. (762 m)
Altimeter30.07 in.Hg (1018 mB)
PrecipitiationTrace
Precip. events Rain began 12:04 PM
Relative humidity93 %
Density altitude-736 ft. (-224 m)
Remarks Fully automated report
Automated weather observing station with precipitation discriminator
Flight conditions Marginal Visual Meteorological Conditions
Raw dataKAWO 241940Z AUTO 17006KT 5SM -RA BR FEW009 BKN012 OVC025 09/08 A3007 RMK AO2 RAB04 P0000
An error has occurred. This application may no longer respond until reloaded. Reload 🗙